Terminal Aerodrome Forecast
Issued by NWS

Home | Current Version | Previous Version | Graphics & Text | Print | Product List | Glossary On
Versions: 1 2 3 4 5 6 7 8 9 10 11 12 13 14 15 16 17 18
000
FTUS43 KMPX 201700
TAFRWF
TAF
KRWF 201732Z 2018/2118 15012KT P6SM SCT250
     FM202200 12010KT P6SM BKN070
     FM210200 14007KT 6SM BR VCSH SCT006 OVC050
      TEMPO 2103/2106 4SM TSRA OVC050CB
     FM210600 12006KT 5SM -SHRA BR BKN007 OVC025
      TEMPO 2107/2111 2SM -TSRA BR OVC005CB
     FM211100 11006KT 4SM BR OVC007
     FM211600 17008KT P6SM SCT120 BKN250=

USA.gov is the U.S. government's official web portal to all federal, state and local government web resources and services.